sensor_id;sensor_type;location;lat;lon;timestamp;P1;durP1;ratioP1;P2;durP2;ratioP2
5967;SDS011;3010;51.028;4.170;2022-08-19T00:02:02;43.70;;;33.73;;
5967;SDS011;3010;51.028;4.170;2022-08-19T00:04:30;47.13;;;33.43;;
5967;SDS011;3010;51.028;4.170;2022-08-19T00:06:55;50.87;;;35.20;;
5967;SDS011;3010;51.028;4.170;2022-08-19T00:09:22;46.37;;;33.93;;
5967;SDS011;3010;51.028;4.170;2022-08-19T00:11:49;47.80;;;33.43;;
5967;SDS011;3010;51.028;4.170;2022-08-19T00:14:16;45.90;;;34.00;;
5967;SDS011;3010;51.028;4.170;2022-08-19T00:16:44;52.97;;;39.30;;
5967;SDS011;3010;51.028;4.170;2022-08-19T00:19:10;44.60;;;34.20;;
5967;SDS011;3010;51.028;4.170;2022-08-19T00:21:36;48.53;;;35.60;;
5967;SDS011;3010;51.028;4.170;2022-08-19T00:24:03;51.13;;;35.43;;
5967;SDS011;3010;51.028;4.170;2022-08-19T00:26:29;48.63;;;34.87;;
5967;SDS011;3010;51.028;4.170;2022-08-19T00:28:56;54.90;;;35.83;;
5967;SDS011;3010;51.028;4.170;2022-08-19T00:31:23;53.57;;;37.87;;
5967;SDS011;3010;51.028;4.170;2022-08-19T00:33:49;58.03;;;38.17;;
5967;SDS011;3010;51.028;4.170;2022-08-19T00:36:16;61.73;;;40.43;;
5967;SDS011;3010;51.028;4.170;2022-08-19T00:38:42;60.77;;;39.77;;
5967;SDS011;3010;51.028;4.170;2022-08-19T00:41:10;58.97;;;38.43;;
5967;SDS011;3010;51.028;4.170;2022-08-19T00:43:36;55.37;;;38.53;;
5967;SDS011;3010;51.028;4.170;2022-08-19T00:46:02;58.57;;;39.23;;
5967;SDS011;3010;51.028;4.170;2022-08-19T00:48:29;57.30;;;40.17;;
5967;SDS011;3010;51.028;4.170;2022-08-19T00:50:55;58.57;;;39.17;;
5967;SDS011;3010;51.028;4.170;2022-08-19T00:53:23;62.77;;;45.33;;
5967;SDS011;3010;51.028;4.170;2022-08-19T00:55:50;62.50;;;42.03;;
5967;SDS011;3010;51.028;4.170;2022-08-19T00:58:16;61.17;;;44.35;;
5967;SDS011;3010;51.028;4.170;2022-08-19T01:00:42;57.27;;;40.00;;
5967;SDS011;3010;51.028;4.170;2022-08-19T01:03:10;58.60;;;40.23;;
5967;SDS011;3010;51.028;4.170;2022-08-19T01:05:35;57.33;;;38.57;;
5967;SDS011;3010;51.028;4.170;2022-08-19T01:08:03;58.30;;;40.70;;
5967;SDS011;3010;51.028;4.170;2022-08-19T01:10:29;65.45;;;48.45;;
5967;SDS011;3010;51.028;4.170;2022-08-19T01:12:55;59.10;;;41.43;;
5967;SDS011;3010;51.028;4.170;2022-08-19T01:15:23;61.47;;;41.33;;
5967;SDS011;3010;51.028;4.170;2022-08-19T01:17:48;57.90;;;39.67;;
5967;SDS011;3010;51.028;4.170;2022-08-19T01:20:17;63.23;;;42.13;;
5967;SDS011;3010;51.028;4.170;2022-08-19T01:25:11;63.13;;;42.07;;
5967;SDS011;3010;51.028;4.170;2022-08-19T01:27:39;66.30;;;42.53;;
5967;SDS011;3010;51.028;4.170;2022-08-19T01:30:04;63.23;;;41.20;;
5967;SDS011;3010;51.028;4.170;2022-08-19T01:32:30;63.43;;;43.30;;
5967;SDS011;3010;51.028;4.170;2022-08-19T01:34:57;71.72;;;47.88;;
5967;SDS011;3010;51.028;4.170;2022-08-19T01:37:24;65.20;;;42.90;;
5967;SDS011;3010;51.028;4.170;2022-08-19T01:39:50;65.37;;;42.97;;
5967;SDS011;3010;51.028;4.170;2022-08-19T01:42:17;68.10;;;42.73;;
5967;SDS011;3010;51.028;4.170;2022-08-19T01:44:43;68.53;;;42.57;;
5967;SDS011;3010;51.028;4.170;2022-08-19T01:47:10;62.60;;;40.70;;
5967;SDS011;3010;51.028;4.170;2022-08-19T01:49:37;65.97;;;42.60;;
5967;SDS011;3010;51.028;4.170;2022-08-19T01:52:03;65.33;;;40.30;;
5967;SDS011;3010;51.028;4.170;2022-08-19T01:54:30;64.50;;;41.00;;
5967;SDS011;3010;51.028;4.170;2022-08-19T01:57:05;56.10;;;37.77;;
5967;SDS011;3010;51.028;4.170;2022-08-19T01:59:26;55.23;;;37.23;;
5967;SDS011;3010;51.028;4.170;2022-08-19T02:01:53;58.80;;;38.13;;
5967;SDS011;3010;51.028;4.170;2022-08-19T02:04:19;55.67;;;37.70;;
5967;SDS011;3010;51.028;4.170;2022-08-19T02:06:46;64.17;;;43.80;;
5967;SDS011;3010;51.028;4.170;2022-08-19T02:09:12;58.23;;;38.13;;
5967;SDS011;3010;51.028;4.170;2022-08-19T02:11:39;55.97;;;38.07;;
5967;SDS011;3010;51.028;4.170;2022-08-19T02:14:06;61.00;;;38.93;;
5967;SDS011;3010;51.028;4.170;2022-08-19T02:16:32;54.20;;;36.43;;
5967;SDS011;3010;51.028;4.170;2022-08-19T02:18:59;54.50;;;34.57;;
5967;SDS011;3010;51.028;4.170;2022-08-19T02:21:29;51.67;;;35.17;;
5967;SDS011;3010;51.028;4.170;2022-08-19T02:23:55;54.13;;;35.40;;
5967;SDS011;3010;51.028;4.170;2022-08-19T02:26:22;55.93;;;34.87;;
5967;SDS011;3010;51.028;4.170;2022-08-19T02:28:48;53.40;;;34.37;;
5967;SDS011;3010;51.028;4.170;2022-08-19T02:31:17;52.13;;;34.83;;
5967;SDS011;3010;51.028;4.170;2022-08-19T02:33:42;49.23;;;34.30;;
5967;SDS011;3010;51.028;4.170;2022-08-19T02:36:09;53.13;;;33.87;;
5967;SDS011;3010;51.028;4.170;2022-08-19T02:38:35;52.73;;;33.57;;
5967;SDS011;3010;51.028;4.170;2022-08-19T02:41:03;54.33;;;34.67;;
5967;SDS011;3010;51.028;4.170;2022-08-19T02:43:31;52.93;;;35.23;;
5967;SDS011;3010;51.028;4.170;2022-08-19T02:45:57;50.03;;;33.27;;
5967;SDS011;3010;51.028;4.170;2022-08-19T02:48:24;51.97;;;33.37;;
5967;SDS011;3010;51.028;4.170;2022-08-19T02:50:51;47.60;;;31.70;;
5967;SDS011;3010;51.028;4.170;2022-08-19T02:53:24;47.60;;;31.73;;
5967;SDS011;3010;51.028;4.170;2022-08-19T02:55:50;51.97;;;32.50;;
5967;SDS011;3010;51.028;4.170;2022-08-19T02:58:16;46.17;;;29.37;;
5967;SDS011;3010;51.028;4.170;2022-08-19T03:00:44;47.17;;;31.50;;
5967;SDS011;3010;51.028;4.170;2022-08-19T03:03:12;43.37;;;29.67;;
5967;SDS011;3010;51.028;4.170;2022-08-19T03:05:38;41.57;;;28.43;;
5967;SDS011;3010;51.028;4.170;2022-08-19T03:08:05;44.53;;;29.70;;
5967;SDS011;3010;51.028;4.170;2022-08-19T03:10:32;43.97;;;27.20;;
5967;SDS011;3010;51.028;4.170;2022-08-19T03:12:58;43.27;;;27.73;;
5967;SDS011;3010;51.028;4.170;2022-08-19T03:15:25;43.67;;;28.80;;
5967;SDS011;3010;51.028;4.170;2022-08-19T03:17:51;47.37;;;28.40;;
5967;SDS011;3010;51.028;4.170;2022-08-19T03:20:18;46.10;;;28.43;;
5967;SDS011;3010;51.028;4.170;2022-08-19T03:22:44;42.63;;;27.73;;
5967;SDS011;3010;51.028;4.170;2022-08-19T03:25:11;40.10;;;27.70;;
5967;SDS011;3010;51.028;4.170;2022-08-19T03:27:38;43.23;;;27.20;;
5967;SDS011;3010;51.028;4.170;2022-08-19T03:30:04;44.47;;;30.57;;
5967;SDS011;3010;51.028;4.170;2022-08-19T03:32:31;43.97;;;31.08;;
5967;SDS011;3010;51.028;4.170;2022-08-19T03:34:58;44.00;;;27.40;;
5967;SDS011;3010;51.028;4.170;2022-08-19T03:37:24;43.53;;;29.93;;
5967;SDS011;3010;51.028;4.170;2022-08-19T03:39:51;38.10;;;26.80;;
5967;SDS011;3010;51.028;4.170;2022-08-19T03:42:17;40.57;;;26.47;;
5967;SDS011;3010;51.028;4.170;2022-08-19T03:44:44;36.40;;;25.07;;
5967;SDS011;3010;51.028;4.170;2022-08-19T03:47:11;41.03;;;25.23;;
5967;SDS011;3010;51.028;4.170;2022-08-19T03:49:37;39.20;;;24.60;;
5967;SDS011;3010;51.028;4.170;2022-08-19T03:52:04;37.53;;;24.33;;
5967;SDS011;3010;51.028;4.170;2022-08-19T03:54:30;39.13;;;24.27;;
5967;SDS011;3010;51.028;4.170;2022-08-19T03:56:57;40.57;;;24.33;;
5967;SDS011;3010;51.028;4.170;2022-08-19T03:59:28;39.53;;;24.43;;
5967;SDS011;3010;51.028;4.170;2022-08-19T04:01:54;39.27;;;26.80;;
5967;SDS011;3010;51.028;4.170;2022-08-19T04:04:20;35.07;;;23.53;;
5967;SDS011;3010;51.028;4.170;2022-08-19T04:06:46;33.00;;;23.13;;
5967;SDS011;3010;51.028;4.170;2022-08-19T04:09:13;40.03;;;23.27;;
5967;SDS011;3010;51.028;4.170;2022-08-19T04:11:41;38.53;;;22.63;;
5967;SDS011;3010;51.028;4.170;2022-08-19T04:14:06;37.13;;;21.23;;
5967;SDS011;3010;51.028;4.170;2022-08-19T04:16:33;42.40;;;25.43;;
5967;SDS011;3010;51.028;4.170;2022-08-19T04:19:00;34.63;;;21.80;;
5967;SDS011;3010;51.028;4.170;2022-08-19T04:21:26;33.87;;;21.53;;
5967;SDS011;3010;51.028;4.170;2022-08-19T04:23:53;32.07;;;20.87;;
5967;SDS011;3010;51.028;4.170;2022-08-19T04:26:23;34.30;;;22.87;;
5967;SDS011;3010;51.028;4.170;2022-08-19T04:28:46;37.17;;;21.80;;
5967;SDS011;3010;51.028;4.170;2022-08-19T04:31:16;33.80;;;20.67;;
5967;SDS011;3010;51.028;4.170;2022-08-19T04:33:42;28.67;;;20.97;;
5967;SDS011;3010;51.028;4.170;2022-08-19T04:36:15;34.97;;;20.70;;
5967;SDS011;3010;51.028;4.170;2022-08-19T04:38:35;33.83;;;20.63;;
5967;SDS011;3010;51.028;4.170;2022-08-19T04:41:02;33.87;;;20.37;;
5967;SDS011;3010;51.028;4.170;2022-08-19T04:43:46;32.43;;;20.60;;
5967;SDS011;3010;51.028;4.170;2022-08-19T04:46:13;31.03;;;20.73;;
5967;SDS011;3010;51.028;4.170;2022-08-19T04:48:40;34.77;;;21.20;;
5967;SDS011;3010;51.028;4.170;2022-08-19T04:51:07;36.50;;;21.37;;
5967;SDS011;3010;51.028;4.170;2022-08-19T04:53:33;32.23;;;21.23;;
5967;SDS011;3010;51.028;4.170;2022-08-19T04:55:59;37.43;;;21.97;;
5967;SDS011;3010;51.028;4.170;2022-08-19T04:58:26;32.33;;;20.47;;
5967;SDS011;3010;51.028;4.170;2022-08-19T05:00:52;38.77;;;21.43;;
5967;SDS011;3010;51.028;4.170;2022-08-19T05:03:19;36.03;;;21.83;;
5967;SDS011;3010;51.028;4.170;2022-08-19T05:05:46;32.40;;;21.83;;
5967;SDS011;3010;51.028;4.170;2022-08-19T05:08:13;36.40;;;20.53;;
5967;SDS011;3010;51.028;4.170;2022-08-19T05:10:39;35.40;;;21.97;;
5967;SDS011;3010;51.028;4.170;2022-08-19T05:13:05;34.73;;;22.13;;
5967;SDS011;3010;51.028;4.170;2022-08-19T05:15:32;31.50;;;21.43;;
5967;SDS011;3010;51.028;4.170;2022-08-19T05:17:59;36.90;;;21.73;;
5967;SDS011;3010;51.028;4.170;2022-08-19T05:20:43;31.73;;;20.80;;
5967;SDS011;3010;51.028;4.170;2022-08-19T05:23:28;36.30;;;24.98;;
5967;SDS011;3010;51.028;4.170;2022-08-19T05:25:55;32.00;;;20.20;;
5967;SDS011;3010;51.028;4.170;2022-08-19T05:28:21;33.07;;;20.50;;
5967;SDS011;3010;51.028;4.170;2022-08-19T05:30:48;33.07;;;20.20;;
5967;SDS011;3010;51.028;4.170;2022-08-19T05:33:15;31.27;;;19.83;;
5967;SDS011;3010;51.028;4.170;2022-08-19T05:35:41;32.73;;;23.27;;
5967;SDS011;3010;51.028;4.170;2022-08-19T05:38:08;27.73;;;18.97;;
5967;SDS011;3010;51.028;4.170;2022-08-19T05:40:35;40.07;;;20.33;;
5967;SDS011;3010;51.028;4.170;2022-08-19T05:43:04;31.80;;;18.07;;
5967;SDS011;3010;51.028;4.170;2022-08-19T05:45:31;28.43;;;21.23;;
5967;SDS011;3010;51.028;4.170;2022-08-19T05:47:57;28.13;;;18.83;;
5967;SDS011;3010;51.028;4.170;2022-08-19T05:50:24;30.37;;;19.50;;
5967;SDS011;3010;51.028;4.170;2022-08-19T05:52:50;27.93;;;18.23;;
5967;SDS011;3010;51.028;4.170;2022-08-19T05:55:17;26.00;;;17.43;;
5967;SDS011;3010;51.028;4.170;2022-08-19T05:57:44;27.23;;;18.63;;
5967;SDS011;3010;51.028;4.170;2022-08-19T06:00:10;25.90;;;17.73;;
5967;SDS011;3010;51.028;4.170;2022-08-19T06:02:37;26.58;;;18.70;;
5967;SDS011;3010;51.028;4.170;2022-08-19T06:05:04;24.30;;;18.03;;
5967;SDS011;3010;51.028;4.170;2022-08-19T06:07:30;25.27;;;17.13;;
5967;SDS011;3010;51.028;4.170;2022-08-19T06:09:57;23.70;;;16.07;;
5967;SDS011;3010;51.028;4.170;2022-08-19T06:12:23;21.30;;;14.63;;
5967;SDS011;3010;51.028;4.170;2022-08-19T06:14:50;24.40;;;15.07;;
5967;SDS011;3010;51.028;4.170;2022-08-19T06:17:17;22.52;;;17.05;;
5967;SDS011;3010;51.028;4.170;2022-08-19T06:19:43;19.43;;;14.97;;
5967;SDS011;3010;51.028;4.170;2022-08-19T06:22:10;21.30;;;14.83;;
5967;SDS011;3010;51.028;4.170;2022-08-19T06:24:36;18.52;;;14.45;;
5967;SDS011;3010;51.028;4.170;2022-08-19T06:27:03;18.20;;;14.27;;
5967;SDS011;3010;51.028;4.170;2022-08-19T06:29:29;17.23;;;13.93;;
5967;SDS011;3010;51.028;4.170;2022-08-19T06:31:57;20.43;;;13.90;;
5967;SDS011;3010;51.028;4.170;2022-08-19T06:34:23;19.03;;;14.07;;
5967;SDS011;3010;51.028;4.170;2022-08-19T06:36:50;19.80;;;13.27;;
5967;SDS011;3010;51.028;4.170;2022-08-19T06:39:17;18.70;;;12.93;;
5967;SDS011;3010;51.028;4.170;2022-08-19T06:41:43;20.40;;;14.37;;
5967;SDS011;3010;51.028;4.170;2022-08-19T06:44:09;19.53;;;13.37;;
5967;SDS011;3010;51.028;4.170;2022-08-19T06:46:36;21.90;;;12.87;;
5967;SDS011;3010;51.028;4.170;2022-08-19T06:49:02;15.00;;;12.40;;
5967;SDS011;3010;51.028;4.170;2022-08-19T06:51:30;19.47;;;12.93;;
5967;SDS011;3010;51.028;4.170;2022-08-19T06:53:57;15.93;;;12.90;;
5967;SDS011;3010;51.028;4.170;2022-08-19T06:56:25;16.20;;;12.30;;
5967;SDS011;3010;51.028;4.170;2022-08-19T06:58:50;18.10;;;13.07;;
5967;SDS011;3010;51.028;4.170;2022-08-19T07:01:17;15.80;;;11.43;;
5967;SDS011;3010;51.028;4.170;2022-08-19T07:03:43;19.90;;;12.60;;
5967;SDS011;3010;51.028;4.170;2022-08-19T07:06:11;17.37;;;11.33;;
5967;SDS011;3010;51.028;4.170;2022-08-19T07:08:37;18.75;;;13.75;;
5967;SDS011;3010;51.028;4.170;2022-08-19T07:11:10;14.83;;;11.17;;
5967;SDS011;3010;51.028;4.170;2022-08-19T07:13:36;14.83;;;12.40;;
5967;SDS011;3010;51.028;4.170;2022-08-19T07:16:03;18.20;;;11.17;;
5967;SDS011;3010;51.028;4.170;2022-08-19T07:18:31;14.87;;;11.77;;
5967;SDS011;3010;51.028;4.170;2022-08-19T07:21:05;13.13;;;10.80;;
5967;SDS011;3010;51.028;4.170;2022-08-19T07:23:33;13.70;;;11.43;;
5967;SDS011;3010;51.028;4.170;2022-08-19T07:26:10;13.37;;;11.13;;
5967;SDS011;3010;51.028;4.170;2022-08-19T07:28:35;13.60;;;10.60;;
5967;SDS011;3010;51.028;4.170;2022-08-19T07:31:02;13.33;;;11.03;;
5967;SDS011;3010;51.028;4.170;2022-08-19T07:33:29;10.83;;;9.73;;
5967;SDS011;3010;51.028;4.170;2022-08-19T07:35:55;15.70;;;10.40;;
5967;SDS011;3010;51.028;4.170;2022-08-19T07:38:22;12.67;;;9.53;;
5967;SDS011;3010;51.028;4.170;2022-08-19T07:40:48;13.68;;;10.48;;
5967;SDS011;3010;51.028;4.170;2022-08-19T07:43:15;15.30;;;9.60;;
5967;SDS011;3010;51.028;4.170;2022-08-19T07:45:41;12.17;;;9.10;;
5967;SDS011;3010;51.028;4.170;2022-08-19T07:48:08;9.60;;;8.03;;
5967;SDS011;3010;51.028;4.170;2022-08-19T07:50:35;10.33;;;8.20;;
5967;SDS011;3010;51.028;4.170;2022-08-19T07:53:01;9.17;;;8.17;;
5967;SDS011;3010;51.028;4.170;2022-08-19T07:55:28;9.73;;;8.73;;
5967;SDS011;3010;51.028;4.170;2022-08-19T07:57:54;10.00;;;9.00;;
5967;SDS011;3010;51.028;4.170;2022-08-19T08:00:21;10.82;;;8.82;;
5967;SDS011;3010;51.028;4.170;2022-08-19T08:02:48;11.90;;;8.07;;
5967;SDS011;3010;51.028;4.170;2022-08-19T08:05:14;10.30;;;8.85;;
5967;SDS011;3010;51.028;4.170;2022-08-19T08:07:59;11.17;;;8.50;;
5967;SDS011;3010;51.028;4.170;2022-08-19T08:10:44;19.07;;;7.83;;
5967;SDS011;3010;51.028;4.170;2022-08-19T08:13:10;8.37;;;7.57;;
5967;SDS011;3010;51.028;4.170;2022-08-19T08:15:37;8.90;;;8.00;;
5967;SDS011;3010;51.028;4.170;2022-08-19T08:18:04;9.25;;;8.35;;
5967;SDS011;3010;51.028;4.170;2022-08-19T08:20:30;12.65;;;8.43;;
5967;SDS011;3010;51.028;4.170;2022-08-19T08:22:57;10.57;;;8.17;;
5967;SDS011;3010;51.028;4.170;2022-08-19T08:25:42;9.87;;;7.40;;
5967;SDS011;3010;51.028;4.170;2022-08-19T08:28:08;10.50;;;6.83;;
5967;SDS011;3010;51.028;4.170;2022-08-19T08:30:35;12.40;;;7.70;;
5967;SDS011;3010;51.028;4.170;2022-08-19T08:33:02;10.53;;;7.87;;
5967;SDS011;3010;51.028;4.170;2022-08-19T08:35:28;8.53;;;7.80;;
5967;SDS011;3010;51.028;4.170;2022-08-19T08:37:55;8.80;;;7.90;;
5967;SDS011;3010;51.028;4.170;2022-08-19T08:40:23;9.07;;;7.10;;
5967;SDS011;3010;51.028;4.170;2022-08-19T08:43:38;9.63;;;7.53;;
5967;SDS011;3010;51.028;4.170;2022-08-19T08:45:36;11.07;;;7.93;;
5967;SDS011;3010;51.028;4.170;2022-08-19T08:48:03;8.37;;;7.50;;
5967;SDS011;3010;51.028;4.170;2022-08-19T08:50:29;9.90;;;7.85;;
5967;SDS011;3010;51.028;4.170;2022-08-19T08:52:56;8.40;;;7.10;;
5967;SDS011;3010;51.028;4.170;2022-08-19T08:55:27;8.47;;;6.90;;
5967;SDS011;3010;51.028;4.170;2022-08-19T08:57:56;9.97;;;7.40;;
5967;SDS011;3010;51.028;4.170;2022-08-19T09:00:31;11.15;;;8.57;;
5967;SDS011;3010;51.028;4.170;2022-08-19T09:02:56;9.37;;;8.03;;
5967;SDS011;3010;51.028;4.170;2022-08-19T09:05:23;10.40;;;7.70;;
5967;SDS011;3010;51.028;4.170;2022-08-19T09:08:06;9.93;;;6.87;;
5967;SDS011;3010;51.028;4.170;2022-08-19T09:13:22;9.43;;;7.67;;
5967;SDS011;3010;51.028;4.170;2022-08-19T09:16:19;10.13;;;7.80;;
5967;SDS011;3010;51.028;4.170;2022-08-19T09:18:39;10.70;;;7.67;;
5967;SDS011;3010;51.028;4.170;2022-08-19T09:21:07;10.63;;;7.50;;
5967;SDS011;3010;51.028;4.170;2022-08-19T09:23:34;9.97;;;7.67;;
5967;SDS011;3010;51.028;4.170;2022-08-19T09:26:00;10.27;;;8.25;;
5967;SDS011;3010;51.028;4.170;2022-08-19T09:28:27;8.73;;;7.60;;
5967;SDS011;3010;51.028;4.170;2022-08-19T09:30:53;12.10;;;8.10;;
5967;SDS011;3010;51.028;4.170;2022-08-19T09:33:20;8.80;;;7.90;;
5967;SDS011;3010;51.028;4.170;2022-08-19T09:35:47;10.35;;;8.27;;
5967;SDS011;3010;51.028;4.170;2022-08-19T09:38:13;9.57;;;7.83;;
5967;SDS011;3010;51.028;4.170;2022-08-19T09:40:40;11.12;;;8.70;;
5967;SDS011;3010;51.028;4.170;2022-08-19T09:43:06;11.13;;;8.27;;
5967;SDS011;3010;51.028;4.170;2022-08-19T09:45:33;8.30;;;7.53;;
5967;SDS011;3010;51.028;4.170;2022-08-19T09:47:59;8.87;;;7.50;;
5967;SDS011;3010;51.028;4.170;2022-08-19T09:50:26;11.57;;;7.63;;
5967;SDS011;3010;51.028;4.170;2022-08-19T09:52:53;8.80;;;7.37;;
5967;SDS011;3010;51.028;4.170;2022-08-19T09:55:19;8.80;;;7.47;;
5967;SDS011;3010;51.028;4.170;2022-08-19T09:57:46;12.03;;;7.60;;
5967;SDS011;3010;51.028;4.170;2022-08-19T10:00:12;11.93;;;7.80;;
5967;SDS011;3010;51.028;4.170;2022-08-19T10:02:39;12.30;;;7.63;;
5967;SDS011;3010;51.028;4.170;2022-08-19T10:05:06;13.13;;;6.87;;
5967;SDS011;3010;51.028;4.170;2022-08-19T10:07:51;11.68;;;8.07;;
5967;SDS011;3010;51.028;4.170;2022-08-19T10:10:17;7.87;;;6.73;;
5967;SDS011;3010;51.028;4.170;2022-08-19T10:12:44;7.70;;;6.93;;
5967;SDS011;3010;51.028;4.170;2022-08-19T10:15:10;9.23;;;7.00;;
5967;SDS011;3010;51.028;4.170;2022-08-19T10:17:37;7.57;;;6.23;;
5967;SDS011;3010;51.028;4.170;2022-08-19T10:20:04;7.27;;;6.63;;
5967;SDS011;3010;51.028;4.170;2022-08-19T10:22:30;6.97;;;6.37;;
5967;SDS011;3010;51.028;4.170;2022-08-19T10:24:57;8.07;;;7.20;;
5967;SDS011;3010;51.028;4.170;2022-08-19T10:27:23;7.00;;;6.23;;
5967;SDS011;3010;51.028;4.170;2022-08-19T10:29:50;6.10;;;5.70;;
5967;SDS011;3010;51.028;4.170;2022-08-19T10:32:17;6.17;;;5.67;;
5967;SDS011;3010;51.028;4.170;2022-08-19T10:34:43;6.50;;;6.00;;
5967;SDS011;3010;51.028;4.170;2022-08-19T10:37:10;7.20;;;6.50;;
5967;SDS011;3010;51.028;4.170;2022-08-19T10:39:36;7.27;;;6.13;;
5967;SDS011;3010;51.028;4.170;2022-08-19T10:42:06;7.03;;;6.33;;
5967;SDS011;3010;51.028;4.170;2022-08-19T10:44:33;9.00;;;6.68;;
5967;SDS011;3010;51.028;4.170;2022-08-19T10:46:59;6.60;;;6.03;;
5967;SDS011;3010;51.028;4.170;2022-08-19T10:49:26;6.70;;;6.00;;
5967;SDS011;3010;51.028;4.170;2022-08-19T10:51:52;5.50;;;4.90;;
5967;SDS011;3010;51.028;4.170;2022-08-19T10:54:37;5.40;;;4.90;;
5967;SDS011;3010;51.028;4.170;2022-08-19T10:57:22;4.97;;;4.57;;
5967;SDS011;3010;51.028;4.170;2022-08-19T10:59:49;5.97;;;5.37;;
5967;SDS011;3010;51.028;4.170;2022-08-19T11:02:15;6.20;;;5.60;;
5967;SDS011;3010;51.028;4.170;2022-08-19T11:04:42;6.23;;;5.67;;
5967;SDS011;3010;51.028;4.170;2022-08-19T11:07:09;5.17;;;4.87;;
5967;SDS011;3010;51.028;4.170;2022-08-19T11:09:39;5.53;;;5.03;;
5967;SDS011;3010;51.028;4.170;2022-08-19T11:12:05;5.40;;;4.90;;
5967;SDS011;3010;51.028;4.170;2022-08-19T11:14:31;5.37;;;4.97;;
5967;SDS011;3010;51.028;4.170;2022-08-19T11:16:58;4.77;;;4.37;;
5967;SDS011;3010;51.028;4.170;2022-08-19T11:19:24;5.13;;;4.90;;
5967;SDS011;3010;51.028;4.170;2022-08-19T11:21:51;4.80;;;4.40;;
5967;SDS011;3010;51.028;4.170;2022-08-19T11:24:19;4.43;;;4.23;;
5967;SDS011;3010;51.028;4.170;2022-08-19T11:26:47;6.53;;;4.00;;
5967;SDS011;3010;51.028;4.170;2022-08-19T11:29:13;4.50;;;4.20;;
5967;SDS011;3010;51.028;4.170;2022-08-19T11:31:41;4.77;;;4.47;;
5967;SDS011;3010;51.028;4.170;2022-08-19T11:34:07;3.60;;;3.40;;
5967;SDS011;3010;51.028;4.170;2022-08-19T11:36:33;4.70;;;4.20;;
5967;SDS011;3010;51.028;4.170;2022-08-19T11:39:00;4.10;;;3.60;;
5967;SDS011;3010;51.028;4.170;2022-08-19T11:41:26;4.03;;;3.83;;
5967;SDS011;3010;51.028;4.170;2022-08-19T11:43:53;3.77;;;3.43;;
5967;SDS011;3010;51.028;4.170;2022-08-19T11:46:19;4.43;;;4.03;;
5967;SDS011;3010;51.028;4.170;2022-08-19T11:48:46;4.37;;;3.97;;
5967;SDS011;3010;51.028;4.170;2022-08-19T11:51:14;4.23;;;3.83;;
5967;SDS011;3010;51.028;4.170;2022-08-19T11:53:39;3.77;;;3.57;;
5967;SDS011;3010;51.028;4.170;2022-08-19T11:56:05;4.20;;;3.90;;
5967;SDS011;3010;51.028;4.170;2022-08-19T11:58:34;4.13;;;3.60;;
5967;SDS011;3010;51.028;4.170;2022-08-19T12:01:00;4.30;;;3.50;;
5967;SDS011;3010;51.028;4.170;2022-08-19T12:03:27;3.60;;;3.30;;
5967;SDS011;3010;51.028;4.170;2022-08-19T12:05:53;3.30;;;3.03;;
5967;SDS011;3010;51.028;4.170;2022-08-19T12:08:20;3.80;;;3.40;;
5967;SDS011;3010;51.028;4.170;2022-08-19T12:10:46;4.40;;;4.03;;
5967;SDS011;3010;51.028;4.170;2022-08-19T12:13:13;4.00;;;3.60;;
5967;SDS011;3010;51.028;4.170;2022-08-19T12:15:40;5.40;;;4.00;;
5967;SDS011;3010;51.028;4.170;2022-08-19T12:18:07;4.40;;;4.10;;
5967;SDS011;3010;51.028;4.170;2022-08-19T12:20:36;5.13;;;4.17;;
5967;SDS011;3010;51.028;4.170;2022-08-19T12:23:02;5.77;;;4.87;;
5967;SDS011;3010;51.028;4.170;2022-08-19T12:25:29;9.20;;;4.70;;
5967;SDS011;3010;51.028;4.170;2022-08-19T12:27:55;5.67;;;4.97;;
5967;SDS011;3010;51.028;4.170;2022-08-19T12:30:22;5.20;;;4.80;;
5967;SDS011;3010;51.028;4.170;2022-08-19T12:32:48;5.67;;;5.17;;
5967;SDS011;3010;51.028;4.170;2022-08-19T12:35:15;8.30;;;6.17;;
5967;SDS011;3010;51.028;4.170;2022-08-19T12:37:42;6.10;;;5.63;;
5967;SDS011;3010;51.028;4.170;2022-08-19T12:40:08;7.77;;;7.03;;
5967;SDS011;3010;51.028;4.170;2022-08-19T12:42:35;7.47;;;6.87;;
5967;SDS011;3010;51.028;4.170;2022-08-19T12:45:01;7.03;;;6.00;;
5967;SDS011;3010;51.028;4.170;2022-08-19T12:47:28;8.97;;;7.47;;
5967;SDS011;3010;51.028;4.170;2022-08-19T12:49:55;7.27;;;6.77;;
5967;SDS011;3010;51.028;4.170;2022-08-19T12:52:22;6.33;;;5.93;;
5967;SDS011;3010;51.028;4.170;2022-08-19T12:54:48;5.50;;;5.07;;
5967;SDS011;3010;51.028;4.170;2022-08-19T12:57:14;4.93;;;4.57;;
5967;SDS011;3010;51.028;4.170;2022-08-19T12:59:41;5.53;;;4.30;;
5967;SDS011;3010;51.028;4.170;2022-08-19T13:02:08;4.47;;;4.13;;
5967;SDS011;3010;51.028;4.170;2022-08-19T13:04:34;4.07;;;3.87;;
5967;SDS011;3010;51.028;4.170;2022-08-19T13:07:01;4.80;;;4.50;;
5967;SDS011;3010;51.028;4.170;2022-08-19T13:09:27;4.43;;;4.23;;
5967;SDS011;3010;51.028;4.170;2022-08-19T13:11:54;4.25;;;3.95;;
5967;SDS011;3010;51.028;4.170;2022-08-19T13:14:20;4.27;;;4.00;;
5967;SDS011;3010;51.028;4.170;2022-08-19T13:16:47;4.00;;;3.90;;
5967;SDS011;3010;51.028;4.170;2022-08-19T13:19:14;4.33;;;4.13;;
5967;SDS011;3010;51.028;4.170;2022-08-19T13:21:40;4.03;;;3.63;;
5967;SDS011;3010;51.028;4.170;2022-08-19T13:24:07;4.00;;;3.80;;
5967;SDS011;3010;51.028;4.170;2022-08-19T13:26:33;4.10;;;3.83;;
5967;SDS011;3010;51.028;4.170;2022-08-19T13:29:00;3.37;;;3.27;;
5967;SDS011;3010;51.028;4.170;2022-08-19T13:31:45;4.10;;;3.90;;
5967;SDS011;3010;51.028;4.170;2022-08-19T13:34:33;4.23;;;4.03;;
5967;SDS011;3010;51.028;4.170;2022-08-19T13:36:59;4.13;;;4.03;;
5967;SDS011;3010;51.028;4.170;2022-08-19T13:39:25;4.20;;;4.00;;
5967;SDS011;3010;51.028;4.170;2022-08-19T13:41:52;4.43;;;4.10;;
5967;SDS011;3010;51.028;4.170;2022-08-19T13:44:19;3.40;;;3.30;;
5967;SDS011;3010;51.028;4.170;2022-08-19T13:46:49;3.10;;;3.00;;
5967;SDS011;3010;51.028;4.170;2022-08-19T13:49:12;2.80;;;2.60;;
5967;SDS011;3010;51.028;4.170;2022-08-19T13:51:38;2.63;;;2.43;;
5967;SDS011;3010;51.028;4.170;2022-08-19T13:54:06;2.33;;;2.30;;
5967;SDS011;3010;51.028;4.170;2022-08-19T13:56:32;3.50;;;2.30;;
5967;SDS011;3010;51.028;4.170;2022-08-19T13:58:58;2.30;;;2.30;;
5967;SDS011;3010;51.028;4.170;2022-08-19T14:01:25;2.20;;;1.90;;
5967;SDS011;3010;51.028;4.170;2022-08-19T14:03:51;1.80;;;1.70;;
5967;SDS011;3010;51.028;4.170;2022-08-19T14:06:18;2.77;;;1.47;;
5967;SDS011;3010;51.028;4.170;2022-08-19T14:08:45;2.10;;;1.80;;
5967;SDS011;3010;51.028;4.170;2022-08-19T14:11:11;2.33;;;2.13;;
5967;SDS011;3010;51.028;4.170;2022-08-19T14:13:38;2.10;;;2.00;;
5967;SDS011;3010;51.028;4.170;2022-08-19T14:16:12;1.97;;;1.93;;
5967;SDS011;3010;51.028;4.170;2022-08-19T14:18:37;2.30;;;2.00;;
5967;SDS011;3010;51.028;4.170;2022-08-19T14:21:04;2.00;;;1.90;;
5967;SDS011;3010;51.028;4.170;2022-08-19T14:23:31;3.37;;;2.00;;
5967;SDS011;3010;51.028;4.170;2022-08-19T14:26:06;2.30;;;2.20;;
5967;SDS011;3010;51.028;4.170;2022-08-19T14:28:29;2.20;;;2.10;;
5967;SDS011;3010;51.028;4.170;2022-08-19T14:30:56;2.40;;;2.20;;
5967;SDS011;3010;51.028;4.170;2022-08-19T14:33:22;2.42;;;2.22;;
5967;SDS011;3010;51.028;4.170;2022-08-19T14:35:49;3.57;;;3.20;;
5967;SDS011;3010;51.028;4.170;2022-08-19T14:38:16;7.53;;;3.00;;
5967;SDS011;3010;51.028;4.170;2022-08-19T14:40:42;5.37;;;3.20;;
5967;SDS011;3010;51.028;4.170;2022-08-19T14:43:09;5.00;;;2.87;;
5967;SDS011;3010;51.028;4.170;2022-08-19T14:45:36;2.90;;;2.73;;
5967;SDS011;3010;51.028;4.170;2022-08-19T14:48:02;2.77;;;2.60;;
5967;SDS011;3010;51.028;4.170;2022-08-19T14:50:28;4.67;;;2.60;;
5967;SDS011;3010;51.028;4.170;2022-08-19T14:53:02;2.60;;;2.07;;
5967;SDS011;3010;51.028;4.170;2022-08-19T14:55:24;2.60;;;1.83;;
5967;SDS011;3010;51.028;4.170;2022-08-19T14:57:51;1.97;;;1.70;;
5967;SDS011;3010;51.028;4.170;2022-08-19T15:00:17;1.67;;;1.67;;
5967;SDS011;3010;51.028;4.170;2022-08-19T15:02:44;1.70;;;1.60;;
5967;SDS011;3010;51.028;4.170;2022-08-19T15:05:11;2.03;;;1.90;;
5967;SDS011;3010;51.028;4.170;2022-08-19T15:07:37;2.00;;;1.90;;